Hull, Illinois
Current Conditions -  °F | °C
As of 2:35 PM on Monday 26 Jan 2015 (Local Time) from KHAE Reporting Station
Overcast Overcast  
Wind Chill: 37°   Ceiling: 3100
Heat Index: 43°   Visibility: 10mi
Dew Point: 32°   Wind: 9mph
Humidity: 66%   Direction: 240°WSW
Pressure: 29.84"   Gusts: NA
Location:  39.71°N, 91.21°W
Report Text: KHAE 262035Z AUTO 24008KT 10SM SCT023 OVC031 06/00 A2984 RMK AO2
Loading
Personal Weather Stations






























Interactive Weather Map New forecast layout! Learn more

10-Day Weather Forecast

Advertisements
Track Severe Weather on mobile